CMA CGM Castilla — V7LZ7 — position and weather

sailwx.info

Track history (hours):
 
Tides and Currents Weather Stations Pressure Air Temp Water Temp Dewpoint Dewpoint Depression Visibility Wind Speed Wind Dir Waves Ship Positions

CMA CGM Castilla

Last reported at 2015-Jan-30 14:32 UTC. Time now 2015-Jan-30 17:05 UTC.
Position N 41°25' E 029°04'.

Length 194 m; beam 28.2 m; draft 11.5 m.

Type: Ship. MMSI: 538090285.

Date/timePositionNaut miles runAvg speedWind from/ knotsBaromVisibWave heightAir tempDewpointWater temp
2015-Jan-30 14:32N 41°25' E 029°04'1212.7
2015-Jan-30 13:33N 41°30' E 029°20'1313.4
2015-Jan-30 12:33N 41°32' E 029°37'36614.7
2015-Jan-29 11:33N 44°19' E 037°03'1514.8
2015-Jan-29 10:33N 44°25' E 037°22'1515.5
2015-Jan-29 09:33N 44°32' E 037°41'1111.4
2015-Jan-29 08:34N 44°42' E 037°49'2 1.8
2015-Jan-29 07:34N 44°43' E 037°49'0 0.0
2015-Jan-29 06:29N 44°43' E 037°49'0 0.0
2015-Jan-29 05:32N 44°43' E 037°49'0 0.0
2015-Jan-29 04:32N 44°43' E 037°49'0 0.0
2015-Jan-29 03:32N 44°43' E 037°49'0 0.0
2015-Jan-29 02:32N 44°43' E 037°49'0 0.0
2015-Jan-29 01:32N 44°43' E 037°49'0 0.0
2015-Jan-29 00:32N 44°43' E 037°49'0 0.0
2015-Jan-28 23:29N 44°43' E 037°49'0 0.0
2015-Jan-28 22:32N 44°43' E 037°49'0 0.0
2015-Jan-28 21:32N 44°43' E 037°49'0 0.0
2015-Jan-28 20:32N 44°43' E 037°49'0 0.0
2015-Jan-28 19:32N 44°43' E 037°49'0 0.0
2015-Jan-28 18:32N 44°43' E 037°49'0 0.0
2015-Jan-28 17:32N 44°43' E 037°49'4 4.4
2015-Jan-28 16:33N 44°39' E 037°51'5 5.2
2015-Jan-28 15:33N 44°34' E 037°50'1514.8
2015-Jan-28 14:33N 44°25' E 037°33'1716.7
2015-Jan-28 13:33N 44°18' E 037°12'7016.4
2015-Jan-28 09:17N 44°13' E 035°35'1317.4
2015-Jan-28 08:31N 44°14' E 035°17'1717.8
2015-Jan-28 07:33N 44°15' E 034°53'1818.2
2015-Jan-28 06:33N 44°15' E 034°27'1817.6
2015-Jan-28 05:33N 44°15' E 034°03'4715.4
2015-Jan-28 02:30N 44°35' E 033°03'13516.9
2015-Jan-27 18:33N 46°14' E 030°54'1616.1
2015-Jan-27 17:34N 46°30' E 030°47'2 1.9
2015-Jan-27 16:31N 46°30' E 030°44'  
2015-Jan-25 04:32N 37°37' E 025°51'1414.5
2015-Jan-25 03:33N 37°25' E 026°00'1915.5
2015-Jan-25 02:18N 37°13' E 026°19'4114.6
2015-Jan-24 23:30N 36°39' E 026°48'212 4.3
2015-Jan-22 22:30N 33°53' E 029°29'1415.4
2015-Jan-22 21:33N 34°04' E 029°17'9815.2
2015-Jan-22 15:06N 35°18' E 027°59'914.9
2015-Jan-22 14:30N 35°25' E 027°52'1514.9
2015-Jan-22 13:30N 35°36' E 027°40'1715.1
2015-Jan-22 12:23N 35°49' E 027°27'11914.8
2015-Jan-22 04:18N 37°25' E 025°58'1215.7
2015-Jan-22 03:33N 37°33' E 025°47'1615.8
2015-Jan-22 02:32N 37°44' E 025°33'142 4.0
2015-Jan-20 15:21N 39°46' E 024°01'7 9.2
2015-Jan-20 14:32N 39°46' E 024°11'  
Track history (hours):
 
Tides and Currents Weather Stations Pressure Air Temp Water Temp Dewpoint Dewpoint Depression Visibility Wind Speed Wind Dir Waves Ship Positions

CMA CGM Castilla

Last reported at 2015-Jan-30 14:32 UTC. Time now 2015-Jan-30 17:05 UTC.
Position N 41°25' E 029°04'.

Length 194 m; beam 28.2 m; draft 11.5 m.

Type: Ship. MMSI: 538090285.

Date/timePositionNaut miles runAvg speedWind from/ knotsBaromVisibWave heightAir tempDewpointWater temp
2015-Jan-30 14:32N 41°25' E 029°04'1212.7
2015-Jan-30 13:33N 41°30' E 029°20'1313.4
2015-Jan-30 12:33N 41°32' E 029°37'36614.7
2015-Jan-29 11:33N 44°19' E 037°03'1514.8
2015-Jan-29 10:33N 44°25' E 037°22'1515.5
2015-Jan-29 09:33N 44°32' E 037°41'1111.4
2015-Jan-29 08:34N 44°42' E 037°49'2 1.8
2015-Jan-29 07:34N 44°43' E 037°49'0 0.0
2015-Jan-29 06:29N 44°43' E 037°49'0 0.0
2015-Jan-29 05:32N 44°43' E 037°49'0 0.0
2015-Jan-29 04:32N 44°43' E 037°49'0 0.0
2015-Jan-29 03:32N 44°43' E 037°49'0 0.0
2015-Jan-29 02:32N 44°43' E 037°49'0 0.0
2015-Jan-29 01:32N 44°43' E 037°49'0 0.0
2015-Jan-29 00:32N 44°43' E 037°49'0 0.0
2015-Jan-28 23:29N 44°43' E 037°49'0 0.0
2015-Jan-28 22:32N 44°43' E 037°49'0 0.0
2015-Jan-28 21:32N 44°43' E 037°49'0 0.0
2015-Jan-28 20:32N 44°43' E 037°49'0 0.0
2015-Jan-28 19:32N 44°43' E 037°49'0 0.0
2015-Jan-28 18:32N 44°43' E 037°49'0 0.0
2015-Jan-28 17:32N 44°43' E 037°49'4 4.4
2015-Jan-28 16:33N 44°39' E 037°51'5 5.2
2015-Jan-28 15:33N 44°34' E 037°50'1514.8
2015-Jan-28 14:33N 44°25' E 037°33'1716.7
2015-Jan-28 13:33N 44°18' E 037°12'7016.4
2015-Jan-28 09:17N 44°13' E 035°35'1317.4
2015-Jan-28 08:31N 44°14' E 035°17'1717.8
2015-Jan-28 07:33N 44°15' E 034°53'1818.2
2015-Jan-28 06:33N 44°15' E 034°27'1817.6
2015-Jan-28 05:33N 44°15' E 034°03'4715.4
2015-Jan-28 02:30N 44°35' E 033°03'13516.9
2015-Jan-27 18:33N 46°14' E 030°54'1616.1
2015-Jan-27 17:34N 46°30' E 030°47'2 1.9
2015-Jan-27 16:31N 46°30' E 030°44'  
2015-Jan-25 04:32N 37°37' E 025°51'1414.5
2015-Jan-25 03:33N 37°25' E 026°00'1915.5
2015-Jan-25 02:18N 37°13' E 026°19'4114.6
2015-Jan-24 23:30N 36°39' E 026°48'212 4.3
2015-Jan-22 22:30N 33°53' E 029°29'1415.4
2015-Jan-22 21:33N 34°04' E 029°17'9815.2
2015-Jan-22 15:06N 35°18' E 027°59'914.9
2015-Jan-22 14:30N 35°25' E 027°52'1514.9
2015-Jan-22 13:30N 35°36' E 027°40'1715.1
2015-Jan-22 12:23N 35°49' E 027°27'11914.8
2015-Jan-22 04:18N 37°25' E 025°58'1215.7
2015-Jan-22 03:33N 37°33' E 025°47'1615.8
2015-Jan-22 02:32N 37°44' E 025°33'142 4.0
2015-Jan-20 15:21N 39°46' E 024°01'7 9.2
2015-Jan-20 14:32N 39°46' E 024°11'  

Dump ship's entire track history